Time;durP1;ratioP1;P1;durP2;ratioP2;P2;SDS_P1;SDS_P2;PMS_P1;PMS_P2;Temp;Humidity;BMP_temperature;BMP_pressure;BME280_temperature;BME280_humidity;BME280_pressure;Samples;Min_cycle;Max_cycle;Signal;HPM_P1;HPM_P2
2022/03/27 00:02:21;;;;;;;11.70;5.00;;;;;;;1.87;49.77;101395.50;106263;1270;108936;-74
2022/03/27 00:04:54;;;;;;;12.90;5.20;;;;;;;1.83;49.89;101393.38;106173;1271;137546;-74
2022/03/27 00:07:26;;;;;;;12.70;5.60;;;;;;;1.78;50.09;101390.85;106265;1271;96554;-74
2022/03/27 00:09:58;;;;;;;12.20;5.60;;;;;;;1.72;50.41;101397.05;106774;1271;137504;-74
2022/03/27 00:12:31;;;;;;;12.20;5.90;;;;;;;1.64;50.50;101401.17;107834;1269;110127;-75
2022/03/27 00:15:04;;;;;;;19.80;6.40;;;;;;;1.58;50.48;101401.35;107737;1270;138219;-73
2022/03/27 00:17:36;;;;;;;14.20;4.90;;;;;;;1.51;50.97;101404.64;107810;1270;108792;-73
2022/03/27 00:20:10;;;;;;;12.60;5.40;;;;;;;1.46;51.09;101409.16;107841;1270;94767;-74
2022/03/27 00:22:42;;;;;;;15.10;5.80;;;;;;;1.42;51.02;101402.70;107742;1270;137895;-73
2022/03/27 00:25:14;;;;;;;12.40;4.80;;;;;;;1.40;51.37;101404.72;107872;1270;111297;-74
2022/03/27 00:27:46;;;;;;;16.90;6.00;;;;;;;1.38;51.52;101401.25;106514;1270;137544;-73
2022/03/27 00:30:18;;;;;;;11.60;5.40;;;;;;;1.37;51.59;101400.88;106298;1270;108850;-74
2022/03/27 00:32:50;;;;;;;10.90;4.90;;;;;;;1.34;51.54;101398.58;106271;1270;96521;-74
2022/03/27 00:35:22;;;;;;;12.40;4.60;;;;;;;1.33;51.35;101395.64;106152;1270;137798;-74
2022/03/27 00:37:54;;;;;;;14.20;6.10;;;;;;;1.30;51.67;101394.21;107820;1271;111083;-74
2022/03/27 00:40:26;;;;;;;11.70;4.70;;;;;;;1.29;51.65;101396.42;107729;1270;137441;-74
2022/03/27 00:42:58;;;;;;;12.70;4.90;;;;;;;1.30;51.77;101396.92;107752;1271;110055;-74
2022/03/27 00:45:30;;;;;;;13.30;4.90;;;;;;;1.31;51.63;101393.70;107126;1269;137706;-74
2022/03/27 00:48:02;;;;;;;9.20;4.10;;;;;;;1.30;51.81;101394.20;106530;1270;96482;-74
2022/03/27 00:50:34;;;;;;;11.00;4.30;;;;;;;1.28;51.47;101397.95;106248;1271;111131;-74
2022/03/27 00:53:08;;;;;;;8.70;3.80;;;;;;;1.26;51.44;101396.52;106099;1270;137798;-74
2022/03/27 00:55:40;;;;;;;11.20;4.40;;;;;;;1.26;51.78;101396.14;107805;1271;107650;-74
2022/03/27 00:58:13;;;;;;;8.70;3.80;;;;;;;1.26;51.42;101391.16;107280;1270;139099;-72
2022/03/27 01:00:51;;;;;;;12.20;4.50;;;;;;;1.25;51.60;101398.70;106570;1270;96559;-75
2022/03/27 01:03:25;;;;;;;10.70;3.70;;;;;;;1.25;51.48;101400.41;107722;1269;138450;-73
2022/03/27 01:05:58;;;;;;;14.30;4.10;;;;;;;1.25;51.34;101400.75;107873;1270;109239;-73
2022/03/27 01:11:23;;;;;;;9.10;3.90;;;;;;;1.24;51.22;101402.79;107781;1270;137311;-73
2022/03/27 01:13:58;;;;;;;10.40;4.20;;;;;;;1.22;51.47;101406.34;107864;1270;94858;-74
2022/03/27 01:16:40;;;;;;;10.40;3.70;;;;;;;1.19;51.45;101404.56;107196;1270;137681;-73
2022/03/27 01:19:15;;;;;;;13.00;4.40;;;;;;;1.17;51.62;101406.59;107857;1270;108828;-74
2022/03/27 01:21:48;;;;;;;9.90;4.30;;;;;;;1.17;51.72;101404.52;107724;1270;137698;-74
2022/03/27 01:24:21;;;;;;;9.00;3.80;;;;;;;1.15;51.60;101408.23;107845;1269;95006;-73
2022/03/27 01:26:53;;;;;;;10.80;3.80;;;;;;;1.13;51.60;101414.37;107870;1270;94732;-74
2022/03/27 01:29:25;;;;;;;14.90;4.00;;;;;;;1.12;51.67;101410.91;107776;1269;137904;-73
2022/03/27 01:31:57;;;;;;;9.90;3.60;;;;;;;1.11;51.72;101409.53;107860;1269;108483;-72
2022/03/27 01:34:29;;;;;;;9.80;3.90;;;;;;;1.12;52.01;101408.67;107230;1270;137609;-72
2022/03/27 01:37:08;;;;;;;11.00;3.90;;;;;;;1.11;51.99;101408.67;106343;1271;96478;-73
2022/03/27 01:39:40;;;;;;;12.00;4.40;;;;;;;1.11;52.06;101412.08;107738;1270;138496;-73
2022/03/27 01:42:13;;;;;;;10.80;4.20;;;;;;;1.10;51.95;101414.96;107901;1270;111061;-73
2022/03/27 01:44:45;;;;;;;12.70;3.90;;;;;;;1.07;51.90;101414.89;107577;1269;108927;-73
2022/03/27 01:47:17;;;;;;;11.10;4.20;;;;;;;1.05;51.91;101415.67;106197;1271;137778;-73
2022/03/27 01:49:49;;;;;;;13.30;4.20;;;;;;;1.03;52.09;101416.49;106191;1271;96471;-73
2022/03/27 01:52:21;;;;;;;13.00;3.90;;;;;;;1.01;52.18;101412.66;106151;1271;138873;-73
2022/03/27 01:54:53;;;;;;;7.80;3.90;;;;;;;0.98;52.37;101419.45;106305;1270;110141;-73
2022/03/27 01:57:25;;;;;;;8.70;3.80;;;;;;;0.95;52.44;101418.86;106305;1270;137502;-73
2022/03/27 01:59:57;;;;;;;10.80;4.40;;;;;;;0.92;52.53;101419.13;106382;1271;108394;-73
2022/03/27 02:02:29;;;;;;;9.40;3.90;;;;;;;0.88;52.83;101420.71;106422;1260;96581;-72
2022/03/27 02:05:01;;;;;;;10.00;3.70;;;;;;;0.84;52.89;101424.23;106410;1271;137278;-74
2022/03/27 02:07:38;;;;;;;11.30;4.20;;;;;;;0.81;52.85;101429.27;106316;1270;110737;-73
2022/03/27 02:10:12;;;;;;;10.70;3.90;;;;;;;0.77;53.07;101433.63;106240;1271;137835;-73
2022/03/27 02:12:44;;;;;;;11.90;4.50;;;;;;;0.73;53.12;101436.10;106325;1272;108989;-72
2022/03/27 02:15:16;;;;;;;9.60;4.00;;;;;;;0.71;53.26;101439.94;106222;1271;137941;-72
2022/03/27 02:17:48;;;;;;;11.60;4.00;;;;;;;0.68;53.48;101442.10;107121;1271;96498;-74
2022/03/27 02:20:20;;;;;;;12.20;4.60;;;;;;;0.62;53.58;101446.40;106348;1271;111112;-73
2022/03/27 02:22:52;;;;;;;9.40;4.50;;;;;;;0.58;53.63;101448.36;106187;1271;137544;-73
2022/03/27 02:25:24;;;;;;;9.40;4.30;;;;;;;0.54;53.72;101443.78;106256;1271;108262;-73
2022/03/27 02:27:57;;;;;;;14.00;4.70;;;;;;;0.48;53.82;101452.34;106655;1271;137343;-74
2022/03/27 02:30:29;;;;;;;12.90;4.20;;;;;;;0.42;53.99;101448.93;107887;1270;94780;-74
2022/03/27 02:33:01;;;;;;;8.30;4.30;;;;;;;0.37;54.35;101447.58;107840;1270;111029;-74
2022/03/27 02:35:33;;;;;;;10.80;4.70;;;;;;;0.31;54.33;101445.88;107768;1270;138363;-74
2022/03/27 02:38:07;;;;;;;10.80;4.50;;;;;;;0.29;54.45;101448.73;107855;1271;107883;-74
2022/03/27 02:40:40;;;;;;;11.50;4.10;;;;;;;0.26;54.43;101445.91;107634;1271;137921;-75
2022/03/27 02:43:12;;;;;;;12.50;4.40;;;;;;;0.23;54.55;101446.34;106279;1271;96394;-74
2022/03/27 02:45:44;;;;;;;10.30;4.30;;;;;;;0.21;54.76;101452.59;106152;1271;138226;-74
2022/03/27 02:48:16;;;;;;;12.10;4.20;;;;;;;0.18;54.71;101460.22;106270;1270;109159;-73
2022/03/27 02:50:48;;;;;;;12.00;4.50;;;;;;;0.15;54.68;101467.13;106282;1271;108189;-74
2022/03/27 02:53:20;;;;;;;8.60;4.10;;;;;;;0.13;55.13;101468.09;106171;1271;138769;-73
2022/03/27 02:55:52;;;;;;;9.40;4.40;;;;;;;0.11;55.17;101476.05;106262;1271;96565;-73
2022/03/27 02:58:30;;;;;;;12.60;4.50;;;;;;;0.10;55.23;101475.69;106218;1270;138835;-73
2022/03/27 03:01:03;;;;;;;11.00;4.60;;;;;;;0.10;55.12;101475.67;106619;1271;107585;-73
2022/03/27 03:03:36;;;;;;;12.00;4.20;;;;;;;0.08;55.07;101471.02;106020;1271;137657;-73
2022/03/27 03:06:09;;;;;;;9.70;4.30;;;;;;;0.07;55.38;101471.15;106224;1271;96465;-73
2022/03/27 03:08:42;;;;;;;10.70;4.10;;;;;;;0.06;55.30;101475.91;106257;1271;96392;-71
2022/03/27 03:11:15;;;;;;;12.00;4.80;;;;;;;0.05;55.31;101473.49;107370;1271;138358;-74
2022/03/27 03:13:49;;;;;;;9.60;3.90;;;;;;;0.01;55.49;101472.36;106310;1270;108403;-74
2022/03/27 03:16:42;;;;;;;8.80;3.90;;;;;;;-0.03;55.47;101475.66;106105;1271;137667;-74
2022/03/27 03:19:16;;;;;;;9.20;3.70;;;;;;;-0.05;55.66;101478.84;106582;1271;96706;-74
2022/03/27 03:21:49;;;;;;;9.10;4.30;;;;;;;-0.07;55.61;101480.67;106475;1271;138012;-74
2022/03/27 03:24:21;;;;;;;10.30;4.40;;;;;;;-0.08;55.62;101482.84;107788;1271;111147;-72
2022/03/27 03:26:53;;;;;;;9.30;4.30;;;;;;;-0.11;55.72;101480.20;107372;1271;108816;-72
2022/03/27 03:29:25;;;;;;;11.60;4.10;;;;;;;-0.12;56.12;101487.17;106155;1271;138000;-74
2022/03/27 03:31:57;;;;;;;11.20;4.20;;;;;;;-0.13;55.79;101486.11;106268;1271;96461;-72
2022/03/27 03:34:29;;;;;;;14.30;4.30;;;;;;;-0.15;55.97;101482.14;106269;1271;137584;-72
2022/03/27 03:37:01;;;;;;;11.20;4.40;;;;;;;-0.15;56.05;101487.42;106353;1271;110047;-73
2022/03/27 03:39:33;;;;;;;8.70;3.20;;;;;;;-0.17;56.22;101495.23;106147;1271;139150;-73
2022/03/27 03:42:07;;;;;;;7.60;3.30;;;;;;;-0.19;56.21;101498.05;106267;1271;109139;-73
2022/03/27 03:44:39;;;;;;;6.90;3.60;;;;;;;-0.19;56.17;101507.61;106401;1271;97782;-73
2022/03/27 03:47:12;;;;;;;12.60;4.20;;;;;;;-0.21;56.20;101509.29;106138;1270;138504;-75
2022/03/27 03:49:44;;;;;;;11.30;3.70;;;;;;;-0.21;56.20;101507.05;106252;1271;112220;-74
2022/03/27 03:52:16;;;;;;;8.80;3.60;;;;;;;-0.22;56.36;101514.71;106154;1271;138669;-74
2022/03/27 03:54:48;;;;;;;9.30;3.80;;;;;;;-0.22;56.70;101518.65;106193;1272;108275;-72
2022/03/27 03:57:20;;;;;;;9.70;4.00;;;;;;;-0.22;56.41;101516.42;106075;1271;139108;-74
2022/03/27 03:59:51;;;;;;;13.00;3.90;;;;;;;-0.21;56.61;101521.90;106251;1271;97882;-74
2022/03/27 04:02:24;;;;;;;7.80;4.00;;;;;;;-0.21;56.63;101525.52;106235;1271;112460;-73
2022/03/27 04:04:56;;;;;;;10.00;4.20;;;;;;;-0.20;56.69;101527.59;106113;1271;138127;-73
2022/03/27 04:07:28;;;;;;;9.30;3.40;;;;;;;-0.19;56.75;101530.88;106248;1271;108140;-73
2022/03/27 04:10:00;;;;;;;12.40;3.70;;;;;;;-0.18;56.61;101526.97;106119;1271;138052;-73
2022/03/27 04:12:32;;;;;;;12.10;4.00;;;;;;;-0.18;56.52;101528.54;106253;1271;97839;-73
2022/03/27 04:15:05;;;;;;;14.30;3.60;;;;;;;-0.18;57.03;101523.22;106189;1271;112505;-73
2022/03/27 04:17:45;;;;;;;8.40;3.10;;;;;;;-0.18;56.71;101529.23;106955;1271;138655;-73
2022/03/27 04:20:19;;;;;;;10.80;3.90;;;;;;;-0.17;56.66;101535.73;106392;1271;107707;-74
2022/03/27 04:22:50;;;;;;;9.60;3.60;;;;;;;-0.19;56.70;101535.52;106106;1273;137909;-73
2022/03/27 04:25:23;;;;;;;8.80;3.40;;;;;;;-0.19;57.17;101538.55;106204;1271;97837;-73
2022/03/27 04:27:55;;;;;;;11.50;3.60;;;;;;;-0.20;56.98;101543.16;107698;1271;137623;-73
2022/03/27 04:30:27;;;;;;;10.10;3.20;;;;;;;-0.19;57.14;101540.27;107827;1271;109794;-73
2022/03/27 04:32:59;;;;;;;11.60;4.00;;;;;;;-0.16;56.98;101545.88;107806;1271;109023;-74
2022/03/27 04:35:31;;;;;;;9.20;3.60;;;;;;;-0.09;57.24;101546.60;107247;1271;137776;-73
2022/03/27 04:38:03;;;;;;;10.30;4.20;;;;;;;0.01;56.85;101549.30;106296;1271;97714;-74
2022/03/27 04:40:36;;;;;;;9.50;3.70;;;;;;;0.14;56.93;101548.99;106097;1272;138237;-74
2022/03/27 04:43:08;;;;;;;9.30;3.50;;;;;;;0.24;56.79;101549.00;106222;1273;109101;-73
2022/03/27 04:45:41;;;;;;;12.50;3.20;;;;;;;0.37;56.75;101550.41;106114;1271;138594;-73
2022/03/27 04:48:13;;;;;;;11.00;3.90;;;;;;;0.51;56.55;101548.95;106299;1271;97972;-73
2022/03/27 04:50:45;;;;;;;11.30;3.70;;;;;;;0.64;56.34;101553.77;106246;1271;97943;-74
2022/03/27 04:53:17;;;;;;;12.70;3.50;;;;;;;0.76;56.27;101556.53;106167;1271;138172;-73
2022/03/27 04:55:49;;;;;;;9.60;3.40;;;;;;;0.91;55.88;101561.73;106257;1271;107699;-72
2022/03/27 04:58:21;;;;;;;11.80;4.30;;;;;;;1.10;55.76;101568.08;106120;1271;137647;-74
2022/03/27 05:00:52;;;;;;;10.00;3.40;;;;;;;1.31;55.30;101571.38;106242;1271;98309;-74
2022/03/27 05:03:25;;;;;;;11.30;3.20;;;;;;;1.52;55.21;101567.48;106126;1271;137690;-73
2022/03/27 05:05:57;;;;;;;8.60;3.20;;;;;;;1.76;54.90;101568.80;106244;1271;111641;-74
2022/03/27 05:08:29;;;;;;;8.30;3.40;;;;;;;2.09;54.39;101572.18;106288;1271;109181;-74
2022/03/27 05:11:01;;;;;;;7.70;2.60;;;;;;;2.41;53.92;101571.52;106132;1271;137817;-74
2022/03/27 05:13:33;;;;;;;8.10;3.30;;;;;;;2.65;53.34;101573.23;106237;1271;97822;-74
2022/03/27 05:16:06;;;;;;;9.30;3.00;;;;;;;2.87;52.97;101574.23;106080;1271;138104;-73
2022/03/27 05:18:38;;;;;;;8.10;3.30;;;;;;;3.11;52.50;101578.30;106478;1271;112322;-74
2022/03/27 05:21:10;;;;;;;10.70;3.10;;;;;;;3.26;52.08;101579.48;106250;1270;108933;-74
2022/03/27 05:23:42;;;;;;;12.60;3.80;;;;;;;3.41;51.74;101591.27;106097;1271;137499;-74
2022/03/27 05:26:15;;;;;;;5.40;2.70;;;;;;;3.57;51.49;101596.20;106213;1271;97886;-74
2022/03/27 05:28:47;;;;;;;8.30;3.40;;;;;;;3.76;51.19;101602.73;106136;1271;137366;-74
2022/03/27 05:31:19;;;;;;;10.60;3.30;;;;;;;3.99;50.97;101603.11;106271;1271;112456;-74
2022/03/27 05:33:50;;;;;;;9.00;3.10;;;;;;;4.33;50.54;101605.36;106080;1273;138150;-74
2022/03/27 05:36:22;;;;;;;6.90;3.40;;;;;;;4.62;49.82;101598.04;106270;1271;108453;-73
2022/03/27 05:38:55;;;;;;;6.60;3.20;;;;;;;4.89;49.60;101603.22;106235;1271;97873;-74
2022/03/27 05:41:27;;;;;;;6.70;2.90;;;;;;;5.23;49.01;101603.45;106156;1270;137488;-74
2022/03/27 05:43:59;;;;;;;7.50;3.00;;;;;;;5.53;48.41;101600.67;106293;1271;112647;-74
2022/03/27 05:46:31;;;;;;;10.20;3.90;;;;;;;5.86;48.04;101598.24;106162;1271;137697;-73
2022/03/27 05:49:03;;;;;;;10.20;4.30;;;;;;;6.08;47.30;101597.06;106251;1271;108821;-74
2022/03/27 05:51:35;;;;;;;7.90;3.10;;;;;;;6.37;47.34;101595.36;106128;1271;138523;-74
2022/03/27 05:54:07;;;;;;;9.00;3.30;;;;;;;6.94;46.70;101603.45;106264;1271;97835;-74
2022/03/27 05:56:39;;;;;;;7.80;3.20;;;;;;;7.57;45.77;101610.91;106283;1271;111274;-74
2022/03/27 05:59:11;;;;;;;8.80;3.40;;;;;;;8.43;44.97;101611.83;106032;1271;137702;-75
2022/03/27 06:01:44;;;;;;;7.60;3.20;;;;;;;9.36;43.84;101616.55;106213;1271;109326;-74
2022/03/27 06:04:16;;;;;;;8.80;3.30;;;;;;;10.32;42.93;101609.59;106142;1271;138878;-74
2022/03/27 06:06:48;;;;;;;6.90;3.30;;;;;;;11.83;41.92;101599.35;106231;1271;97938;-74
2022/03/27 06:09:25;;;;;;;5.90;2.50;;;;;;;13.38;39.94;101597.34;106160;1271;138064;-72
2022/03/27 06:11:58;;;;;;;6.70;3.00;;;;;;;14.74;38.13;101596.38;106238;1271;108170;-73
2022/03/27 06:14:31;;;;;;;7.50;2.70;;;;;;;16.26;36.27;101588.71;106250;1271;109413;-73
2022/03/27 06:17:03;;;;;;;5.20;2.70;;;;;;;17.60;34.17;101593.41;106171;1270;137973;-73
2022/03/27 06:19:35;;;;;;;5.90;2.70;;;;;;;18.86;32.80;101592.14;106653;1271;97707;-75
2022/03/27 06:22:07;;;;;;;7.90;3.10;;;;;;;19.95;31.24;101591.41;106178;1271;137883;-73
2022/03/27 06:24:40;;;;;;;4.30;2.60;;;;;;;20.92;29.95;101592.55;107838;1270;108998;-75
2022/03/27 06:27:12;;;;;;;5.60;3.00;;;;;;;21.67;29.04;101601.98;107802;1270;107566;-75
2022/03/27 06:29:44;;;;;;;6.60;2.70;;;;;;;22.30;26.82;101591.48;106794;1273;137704;-74
2022/03/27 06:32:16;;;;;;;5.00;2.20;;;;;;;23.03;26.51;101591.23;106235;1273;97944;-74
2022/03/27 06:34:48;;;;;;;4.10;2.50;;;;;;;23.78;25.83;101596.69;107737;1270;138693;-75
2022/03/27 06:37:20;;;;;;;9.40;2.10;;;;;;;24.67;24.46;101591.69;107846;1270;107699;-75
2022/03/27 06:39:52;;;;;;;4.30;2.10;;;;;;;25.34;23.75;101590.81;107720;1270;138400;-76
2022/03/27 06:42:26;;;;;;;6.10;2.50;;;;;;;26.25;22.30;101593.29;107797;1270;95768;-73
2022/03/27 06:44:58;;;;;;;5.40;2.30;;;;;;;26.78;20.91;101590.61;107879;1270;95985;-75
2022/03/27 06:47:30;;;;;;;4.90;2.60;;;;;;;26.84;20.29;101589.26;107275;1270;137594;-74
2022/03/27 06:50:03;;;;;;;6.10;2.50;;;;;;;27.10;18.66;101596.84;106258;1271;107929;-76
2022/03/27 06:52:35;;;;;;;5.00;2.30;;;;;;;27.61;19.07;101588.02;106212;1271;138971;-74
2022/03/27 06:55:10;;;;;;;4.20;1.80;;;;;;;28.02;18.42;101588.73;106292;1271;97835;-74
2022/03/27 06:57:42;;;;;;;6.20;1.80;;;;;;;28.23;17.82;101590.17;107516;1271;137916;-75
2022/03/27 07:03:09;;;;;;;4.90;2.00;;;;;;;29.63;17.57;101604.33;107758;1272;108871;-75
2022/03/27 07:05:43;;;;;;;3.70;2.00;;;;;;;30.00;16.89;101607.48;107721;1270;138685;-75
2022/03/27 07:08:19;;;;;;;3.60;2.00;;;;;;;29.61;15.59;101614.83;107636;1270;96069;-73
2022/03/27 07:10:52;;;;;;;5.60;1.40;;;;;;;28.93;14.68;101617.02;106386;1271;137600;-75
2022/03/27 07:13:25;;;;;;;7.60;2.00;;;;;;;27.79;14.47;101614.73;106289;1271;111059;-74
2022/03/27 07:15:57;;;;;;;4.50;2.10;;;;;;;26.55;14.41;101614.89;106197;1271;138297;-73
2022/03/27 07:18:30;;;;;;;5.20;2.60;;;;;;;24.39;15.20;101623.98;106248;1271;108449;-76
2022/03/27 07:21:01;;;;;;;4.30;1.80;;;;;;;23.24;16.21;101627.14;106272;1271;97845;-74
2022/03/27 07:23:33;;;;;;;4.40;1.70;;;;;;;23.33;16.28;101630.32;106168;1271;137896;-73
2022/03/27 07:26:05;;;;;;;6.80;2.20;;;;;;;23.47;16.14;101633.98;106270;1271;112626;-74
2022/03/27 07:28:37;;;;;;;7.10;1.90;;;;;;;23.31;15.63;101629.20;106134;1271;137862;-74
2022/03/27 07:31:11;;;;;;;6.60;2.10;;;;;;;22.54;15.99;101639.27;106302;1271;108940;-75
2022/03/27 07:33:43;;;;;;;3.30;2.30;;;;;;;22.29;16.10;101644.83;106731;1271;138762;-75
2022/03/27 07:36:15;;;;;;;2.40;1.40;;;;;;;22.37;16.16;101650.58;106228;1273;97835;-73
2022/03/27 07:38:47;;;;;;;3.50;1.80;;;;;;;22.86;16.57;101645.67;106208;1271;111867;-74
2022/03/27 07:41:19;;;;;;;3.90;2.20;;;;;;;23.46;15.60;101644.76;106207;1270;137837;-74
2022/03/27 07:43:52;;;;;;;3.90;1.80;;;;;;;23.55;15.87;101649.15;106276;1271;109172;-75
2022/03/27 07:46:23;;;;;;;4.90;1.80;;;;;;;24.04;15.94;101645.75;106142;1271;138021;-74
2022/03/27 07:48:56;;;;;;;4.00;1.90;;;;;;;24.46;15.64;101640.29;106254;1271;97812;-75
2022/03/27 07:51:28;;;;;;;3.40;2.00;;;;;;;24.47;15.56;101637.20;106175;1271;137974;-73
2022/03/27 07:54:00;;;;;;;2.00;1.40;;;;;;;24.32;15.16;101642.85;106277;1273;108960;-73
2022/03/27 07:56:33;;;;;;;4.60;2.00;;;;;;;24.35;15.04;101642.80;106245;1271;110415;-75
2022/03/27 07:59:06;;;;;;;3.00;1.40;;;;;;;24.50;14.36;101635.41;106124;1271;138635;-73
2022/03/27 08:01:38;;;;;;;2.80;1.60;;;;;;;24.41;13.66;101638.83;106298;1271;97889;-73
2022/03/27 08:04:10;;;;;;;4.60;1.50;;;;;;;24.62;13.42;101636.36;106134;1271;137566;-74
2022/03/27 08:06:43;;;;;;;3.10;1.80;;;;;;;25.00;13.42;101637.41;106280;1270;108922;-73
2022/03/27 08:09:15;;;;;;;1.80;1.20;;;;;;;25.28;13.36;101633.83;106384;1272;108840;-75
2022/03/27 08:11:47;;;;;;;3.70;1.50;;;;;;;25.48;12.76;101628.82;106119;1270;137527;-74
2022/03/27 08:14:19;;;;;;;2.50;1.60;;;;;;;25.70;13.01;101627.01;106272;1271;97891;-75
2022/03/27 08:16:51;;;;;;;3.60;1.50;;;;;;;26.19;12.93;101616.98;106205;1270;137845;-76
2022/03/27 08:19:23;;;;;;;3.20;1.50;;;;;;;26.46;12.69;101611.31;106235;1271;109001;-74
2022/03/27 08:21:55;;;;;;;2.50;1.60;;;;;;;26.29;12.51;101610.45;106129;1271;138070;-75
2022/03/27 08:24:27;;;;;;;2.20;1.20;;;;;;;25.91;11.81;101613.35;106255;1271;97934;-76
2022/03/27 08:27:01;;;;;;;2.80;1.40;;;;;;;25.31;11.95;101618.14;106315;1271;97818;-74
2022/03/27 08:29:35;;;;;;;1.90;1.10;;;;;;;24.54;11.44;101624.48;106183;1273;138227;-75
2022/03/27 08:32:09;;;;;;;2.70;1.50;;;;;;;24.07;12.01;101632.07;106292;1273;108879;-73
2022/03/27 08:34:43;;;;;;;3.70;1.50;;;;;;;24.00;12.47;101639.06;106524;1271;137859;-75
2022/03/27 08:37:17;;;;;;;3.30;1.10;;;;;;;24.52;12.88;101640.58;107833;1272;95957;-76
2022/03/27 08:39:49;;;;;;;2.40;1.60;;;;;;;25.23;12.27;101638.65;106230;1271;137737;-76
2022/03/27 08:42:21;;;;;;;2.80;1.10;;;;;;;25.69;12.14;101642.08;106256;1273;112069;-76
2022/03/27 08:44:53;;;;;;;1.70;1.20;;;;;;;25.95;12.18;101645.69;106290;1273;109055;-75
2022/03/27 08:47:27;;;;;;;1.90;1.30;;;;;;;26.20;11.87;101648.23;106127;1271;140091;-77
2022/03/27 08:50:13;;;;;;;2.60;1.30;;;;;;;26.16;11.44;101642.51;106286;1271;98576;-74
2022/03/27 08:52:58;;;;;;;4.10;1.50;;;;;;;25.43;11.56;101647.70;106216;1271;137576;-74
2022/03/27 08:55:40;;;;;;;1.80;1.10;;;;;;;24.76;11.81;101652.09;106301;1271;112152;-75
2022/03/27 08:58:14;;;;;;;3.60;1.50;;;;;;;24.43;11.98;101651.52;106178;1270;137748;-75
2022/03/27 09:00:46;;;;;;;1.90;1.20;;;;;;;24.07;12.35;101655.31;106250;1271;107776;-75
2022/03/27 09:03:20;;;;;;;2.40;1.30;;;;;;;23.47;12.32;101652.88;106216;1271;97956;-74
2022/03/27 09:05:53;;;;;;;4.80;1.30;;;;;;;22.96;12.49;101650.34;106175;1271;137322;-76
2022/03/27 09:08:30;;;;;;;2.40;1.50;;;;;;;22.31;12.58;101650.36;106276;1271;111176;-76
2022/03/27 09:11:03;;;;;;;4.20;1.50;;;;;;;21.39;12.76;101649.61;105639;1271;724888;-76
2022/03/27 09:13:37;;;;;;;3.00;1.40;;;;;;;20.99;13.17;101647.50;106268;1271;108570;-76
2022/03/27 09:16:09;;;;;;;7.80;1.60;;;;;;;20.84;13.09;101651.69;106135;1271;138030;-75
2022/03/27 09:18:47;;;;;;;2.10;1.00;;;;;;;21.23;13.81;101650.63;107830;1271;96242;-75
2022/03/27 09:21:22;;;;;;;5.00;1.70;;;;;;;21.82;13.80;101654.28;107844;1271;111808;-76
2022/03/27 09:23:59;;;;;;;3.60;1.80;;;;;;;22.20;13.04;101642.39;107735;1270;137554;-76
2022/03/27 09:26:32;;;;;;;7.70;4.60;;;;;;;22.33;13.14;101640.00;107808;1271;108639;-76
2022/03/27 09:29:10;;;;;;;3.30;1.80;;;;;;;22.51;13.14;101636.40;107704;1271;137652;-76
2022/03/27 09:31:43;;;;;;;2.90;1.50;;;;;;;22.60;12.55;101638.94;106350;1271;97978;-76
2022/03/27 09:34:19;;;;;;;2.60;1.40;;;;;;;22.40;12.97;101649.35;106179;1271;137892;-75
2022/03/27 09:36:51;;;;;;;2.90;1.20;;;;;;;22.37;13.23;101654.48;106292;1271;108087;-75
2022/03/27 09:39:24;;;;;;;3.80;1.30;;;;;;;22.21;12.93;101656.67;106241;1271;110021;-75
2022/03/27 09:42:00;;;;;;;2.40;1.50;;;;;;;21.78;12.92;101657.31;106145;1271;137617;-75
2022/03/27 09:44:37;;;;;;;5.50;1.60;;;;;;;21.61;13.32;101651.58;107844;1271;96221;-76
2022/03/27 09:47:11;;;;;;;3.90;1.60;;;;;;;21.36;13.10;101648.70;107739;1271;137957;-76
2022/03/27 09:49:47;;;;;;;2.50;1.50;;;;;;;21.34;13.64;101651.69;107795;1270;107358;-76
2022/03/27 09:52:21;;;;;;;3.30;1.30;;;;;;;21.51;13.63;101646.63;106262;1271;137835;-74
2022/03/27 09:54:55;;;;;;;3.10;1.90;;;;;;;21.45;13.22;101645.73;106244;1271;97862;-75
2022/03/27 09:57:29;;;;;;;3.50;1.30;;;;;;;21.35;13.48;101643.84;107856;1270;95957;-74
2022/03/27 10:00:16;;;;;;;4.30;1.80;;;;;;;21.36;13.51;101643.56;107730;1270;249718;-75
2022/03/27 10:02:49;;;;;;;2.90;1.50;;;;;;;21.51;13.74;101651.07;107802;1270;108862;-75
2022/03/27 10:05:23;;;;;;;3.50;1.80;;;;;;;21.86;13.84;101643.98;107714;1270;137600;-76
2022/03/27 10:07:56;;;;;;;4.90;1.70;;;;;;;22.17;14.01;101638.84;107833;1270;96030;-75
2022/03/27 10:10:29;;;;;;;2.50;1.60;;;;;;;22.71;13.72;101625.67;107740;1270;137593;-75
2022/03/27 10:13:01;;;;;;;3.50;1.20;;;;;;;22.80;13.29;101619.09;107846;1270;110805;-76
2022/03/27 10:15:34;;;;;;;2.40;1.40;;;;;;;22.76;13.28;101609.75;106530;1270;107891;-76
2022/03/27 10:18:13;;;;;;;2.80;1.40;;;;;;;22.88;13.46;101606.87;106132;1271;137605;-75
2022/03/27 10:20:48;;;;;;;5.50;1.40;;;;;;;22.81;13.25;101600.56;107164;1270;97816;-75
2022/03/27 10:23:24;;;;;;;2.90;1.60;;;;;;;22.47;13.10;101594.33;106162;1271;137647;-75
2022/03/27 10:25:59;;;;;;;2.60;1.50;;;;;;;22.19;13.29;101592.45;106267;1271;112360;-75
2022/03/27 10:28:33;;;;;;;2.50;1.50;;;;;;;22.21;13.43;101588.41;106160;1270;137801;-75
2022/03/27 10:31:06;;;;;;;2.80;1.50;;;;;;;22.08;13.29;101582.98;106215;1270;107208;-75
2022/03/27 10:33:39;;;;;;;2.30;1.40;;;;;;;21.93;13.61;101583.17;107838;1270;95912;-76
2022/03/27 10:36:18;;;;;;;2.80;1.70;;;;;;;22.23;13.81;101583.73;107510;1270;138977;-75
2022/03/27 10:38:59;;;;;;;4.10;1.70;;;;;;;22.30;13.24;101582.75;106290;1270;112115;-74
2022/03/27 10:41:36;;;;;;;3.10;1.90;;;;;;;22.14;13.55;101588.33;107716;1270;137700;-74
2022/03/27 10:44:11;;;;;;;;;;;;;;;22.00;13.54;101574.98;107868;1270;108861;-74
2022/03/27 10:46:46;;;;;;;2.80;1.50;;;;;;;21.64;13.50;101585.21;107731;1270;124310;-74
2022/03/27 10:49:19;;;;;;;5.20;1.90;;;;;;;21.55;13.66;101588.70;107866;1270;95709;-74
2022/03/27 10:52:03;;;;;;;4.50;1.40;;;;;;;21.36;13.53;101582.40;107719;1270;137958;-74
2022/03/27 10:55:00;;;;;;;2.40;1.60;;;;;;;20.69;13.57;101580.70;107814;1272;107731;-75
2022/03/27 10:57:34;;;;;;;3.60;1.90;;;;;;;20.16;14.04;101589.29;107818;1270;105923;-75
2022/03/27 11:00:08;;;;;;;3.20;1.70;;;;;;;19.92;14.31;101596.33;106516;1270;137951;-74
2022/03/27 11:02:50;;;;;;;5.80;1.80;;;;;;;19.68;14.39;101591.33;107525;1272;97964;-75
2022/03/27 11:05:56;;;;;;;3.90;1.70;;;;;;;19.36;14.64;101585.98;107286;1270;139500;-75
2022/03/27 11:08:49;;;;;;;3.80;1.40;;;;;;;19.19;14.89;101577.91;106195;1273;108894;-75
2022/03/27 11:11:53;;;;;;;3.10;1.50;;;;;;;18.92;15.15;101577.79;107437;1270;138169;-75
2022/03/27 11:14:47;;;;;;;5.90;1.80;;;;;;;18.50;15.13;101573.12;106307;1270;98151;-76
2022/03/27 11:17:30;;;;;;;6.00;1.50;;;;;;;18.21;15.31;101578.45;107714;1270;137802;-75
2022/03/27 11:20:03;;;;;;;4.30;1.50;;;;;;;18.08;15.59;101569.98;107825;1270;112067;-74
2022/03/27 11:22:51;;;;;;;5.80;1.70;;;;;;;17.84;15.89;101581.95;107684;1270;137941;-75
2022/03/27 11:25:28;;;;;;;3.30;1.30;;;;;;;17.78;16.04;101580.23;107795;1270;109073;-75
2022/03/27 11:28:05;;;;;;;;;;;;;;;17.73;16.17;101577.78;106794;1270;138053;-76
2022/03/27 11:30:40;;;;;;;3.60;1.40;;;;;;;17.70;16.14;101576.52;107823;1270;96176;-75
2022/03/27 11:33:20;;;;;;;2.80;1.50;;;;;;;17.62;16.19;101574.56;106610;1270;111421;-76
2022/03/27 11:36:26;;;;;;;3.70;1.40;;;;;;;17.48;16.28;101564.02;106580;1270;138393;-76
2022/03/27 11:39:04;;;;;;;3.00;1.40;;;;;;;17.11;16.36;101556.16;106245;1271;108458;-75
2022/03/27 11:41:42;;;;;;;3.00;1.60;;;;;;;16.84;16.61;101550.67;106801;1270;137858;-77
2022/03/27 11:45:06;;;;;;;2.90;1.60;;;;;;;16.77;16.89;101548.98;106245;1271;98464;-76
2022/03/27 11:47:34;;;;;;;3.20;1.50;;;;;;;16.74;17.13;101550.88;106702;1273;137783;-76
2022/03/27 11:50:08;;;;;;;2.30;1.40;;;;;;;16.93;17.14;101546.12;106216;1271;109436;-75